sensor_id;sensor_type;location;lat;lon;timestamp;P1;durP1;ratioP1;P2;durP2;ratioP2
30398;SDS011;17195;50.838;7.214;2022-10-18T00:00:55;9.00;;;6.07;;
30398;SDS011;17195;50.838;7.214;2022-10-18T00:03:21;8.48;;;6.60;;
30398;SDS011;17195;50.838;7.214;2022-10-18T00:05:47;8.43;;;6.75;;
30398;SDS011;17195;50.838;7.214;2022-10-18T00:08:14;8.20;;;6.95;;
30398;SDS011;17195;50.838;7.214;2022-10-18T00:10:40;11.90;;;7.38;;
30398;SDS011;17195;50.838;7.214;2022-10-18T00:13:05;11.45;;;7.72;;
30398;SDS011;17195;50.838;7.214;2022-10-18T00:15:32;9.43;;;7.90;;
30398;SDS011;17195;50.838;7.214;2022-10-18T00:17:58;12.38;;;9.40;;
30398;SDS011;17195;50.838;7.214;2022-10-18T00:20:23;10.73;;;8.98;;
30398;SDS011;17195;50.838;7.214;2022-10-18T00:22:49;11.70;;;8.85;;
30398;SDS011;17195;50.838;7.214;2022-10-18T00:25:16;12.55;;;9.00;;
30398;SDS011;17195;50.838;7.214;2022-10-18T00:27:42;12.68;;;9.05;;
30398;SDS011;17195;50.838;7.214;2022-10-18T00:30:07;12.50;;;9.02;;
30398;SDS011;17195;50.838;7.214;2022-10-18T00:32:40;10.38;;;8.88;;
30398;SDS011;17195;50.838;7.214;2022-10-18T00:35:06;12.32;;;9.52;;
30398;SDS011;17195;50.838;7.214;2022-10-18T00:37:33;12.45;;;9.20;;
30398;SDS011;17195;50.838;7.214;2022-10-18T00:39:59;13.25;;;9.13;;
30398;SDS011;17195;50.838;7.214;2022-10-18T00:42:26;11.70;;;8.98;;
30398;SDS011;17195;50.838;7.214;2022-10-18T00:44:59;12.18;;;8.45;;
30398;SDS011;17195;50.838;7.214;2022-10-18T00:47:28;12.13;;;9.75;;
30398;SDS011;17195;50.838;7.214;2022-10-18T00:49:54;16.33;;;8.88;;
30398;SDS011;17195;50.838;7.214;2022-10-18T00:52:23;13.13;;;8.98;;
30398;SDS011;17195;50.838;7.214;2022-10-18T00:54:52;14.15;;;8.73;;
30398;SDS011;17195;50.838;7.214;2022-10-18T00:57:20;11.35;;;8.30;;
30398;SDS011;17195;50.838;7.214;2022-10-18T00:59:47;12.75;;;8.80;;
30398;SDS011;17195;50.838;7.214;2022-10-18T01:02:12;9.60;;;7.65;;
30398;SDS011;17195;50.838;7.214;2022-10-18T01:04:42;10.18;;;8.13;;
30398;SDS011;17195;50.838;7.214;2022-10-18T01:31:50;16.23;;;9.52;;
30398;SDS011;17195;50.838;7.214;2022-10-18T01:34:21;12.95;;;9.85;;
30398;SDS011;17195;50.838;7.214;2022-10-18T01:36:50;11.95;;;9.15;;
30398;SDS011;17195;50.838;7.214;2022-10-18T01:39:23;13.77;;;9.68;;
30398;SDS011;17195;50.838;7.214;2022-10-18T01:41:53;15.57;;;9.65;;
30398;SDS011;17195;50.838;7.214;2022-10-18T01:44:22;13.38;;;10.50;;
30398;SDS011;17195;50.838;7.214;2022-10-18T01:46:51;11.32;;;9.45;;
30398;SDS011;17195;50.838;7.214;2022-10-18T01:49:18;11.20;;;8.85;;
30398;SDS011;17195;50.838;7.214;2022-10-18T01:51:44;12.48;;;8.98;;
30398;SDS011;17195;50.838;7.214;2022-10-18T01:54:10;11.52;;;9.13;;
30398;SDS011;17195;50.838;7.214;2022-10-18T01:56:44;11.68;;;8.13;;
30398;SDS011;17195;50.838;7.214;2022-10-18T02:07:38;15.25;;;10.75;;
30398;SDS011;17195;50.838;7.214;2022-10-18T02:10:27;13.30;;;10.45;;
30398;SDS011;17195;50.838;7.214;2022-10-18T02:12:54;12.90;;;9.32;;
30398;SDS011;17195;50.838;7.214;2022-10-18T02:15:22;13.90;;;10.15;;
30398;SDS011;17195;50.838;7.214;2022-10-18T02:17:51;14.45;;;9.02;;
30398;SDS011;17195;50.838;7.214;2022-10-18T02:20:19;11.70;;;9.65;;
30398;SDS011;17195;50.838;7.214;2022-10-18T02:22:48;14.18;;;9.85;;
30398;SDS011;17195;50.838;7.214;2022-10-18T02:25:22;16.63;;;10.75;;
30398;SDS011;17195;50.838;7.214;2022-10-18T02:27:50;11.75;;;10.32;;
30398;SDS011;17195;50.838;7.214;2022-10-18T02:30:16;12.75;;;10.90;;
30398;SDS011;17195;50.838;7.214;2022-10-18T02:32:49;12.38;;;10.52;;
30398;SDS011;17195;50.838;7.214;2022-10-18T02:35:32;13.43;;;10.30;;
30398;SDS011;17195;50.838;7.214;2022-10-18T02:38:02;14.90;;;10.98;;
30398;SDS011;17195;50.838;7.214;2022-10-18T02:40:29;13.73;;;11.45;;
30398;SDS011;17195;50.838;7.214;2022-10-18T02:42:56;14.80;;;11.05;;
30398;SDS011;17195;50.838;7.214;2022-10-18T02:45:22;13.73;;;10.55;;
30398;SDS011;17195;50.838;7.214;2022-10-18T02:47:48;13.35;;;10.32;;
30398;SDS011;17195;50.838;7.214;2022-10-18T02:50:14;11.90;;;9.75;;
30398;SDS011;17195;50.838;7.214;2022-10-18T02:52:40;13.73;;;9.90;;
30398;SDS011;17195;50.838;7.214;2022-10-18T02:55:06;16.42;;;10.48;;
30398;SDS011;17195;50.838;7.214;2022-10-18T02:57:32;13.48;;;9.45;;
30398;SDS011;17195;50.838;7.214;2022-10-18T02:59:57;11.63;;;9.25;;
30398;SDS011;17195;50.838;7.214;2022-10-18T03:02:23;12.30;;;8.70;;
30398;SDS011;17195;50.838;7.214;2022-10-18T03:04:49;15.10;;;9.55;;
30398;SDS011;17195;50.838;7.214;2022-10-18T03:07:14;10.27;;;8.45;;
30398;SDS011;17195;50.838;7.214;2022-10-18T03:09:40;10.77;;;8.70;;
30398;SDS011;17195;50.838;7.214;2022-10-18T03:12:05;10.90;;;8.75;;
30398;SDS011;17195;50.838;7.214;2022-10-18T03:14:31;10.30;;;8.20;;
30398;SDS011;17195;50.838;7.214;2022-10-18T03:16:57;9.43;;;8.38;;
30398;SDS011;17195;50.838;7.214;2022-10-18T03:19:22;12.02;;;8.85;;
30398;SDS011;17195;50.838;7.214;2022-10-18T03:21:48;14.82;;;9.90;;
30398;SDS011;17195;50.838;7.214;2022-10-18T03:24:14;10.55;;;8.82;;
30398;SDS011;17195;50.838;7.214;2022-10-18T03:26:39;10.90;;;8.70;;
30398;SDS011;17195;50.838;7.214;2022-10-18T03:29:05;9.48;;;7.53;;
30398;SDS011;17195;50.838;7.214;2022-10-18T03:31:30;10.65;;;8.43;;
30398;SDS011;17195;50.838;7.214;2022-10-18T03:33:56;11.50;;;8.40;;
30398;SDS011;17195;50.838;7.214;2022-10-18T03:36:22;12.13;;;9.48;;
30398;SDS011;17195;50.838;7.214;2022-10-18T03:38:47;10.10;;;8.40;;
30398;SDS011;17195;50.838;7.214;2022-10-18T03:41:13;9.52;;;7.55;;
30398;SDS011;17195;50.838;7.214;2022-10-18T03:43:38;10.77;;;8.13;;
30398;SDS011;17195;50.838;7.214;2022-10-18T03:46:04;11.80;;;9.48;;
30398;SDS011;17195;50.838;7.214;2022-10-18T03:48:30;11.93;;;8.63;;
30398;SDS011;17195;50.838;7.214;2022-10-18T03:50:55;10.75;;;8.65;;
30398;SDS011;17195;50.838;7.214;2022-10-18T03:53:21;10.25;;;7.72;;
30398;SDS011;17195;50.838;7.214;2022-10-18T03:55:53;10.38;;;7.70;;
30398;SDS011;17195;50.838;7.214;2022-10-18T03:58:20;8.68;;;7.00;;
30398;SDS011;17195;50.838;7.214;2022-10-18T04:00:51;8.88;;;5.93;;
30398;SDS011;17195;50.838;7.214;2022-10-18T04:03:18;6.25;;;5.55;;
30398;SDS011;17195;50.838;7.214;2022-10-18T04:05:45;6.50;;;5.35;;
30398;SDS011;17195;50.838;7.214;2022-10-18T04:08:11;5.25;;;4.32;;
30398;SDS011;17195;50.838;7.214;2022-10-18T04:10:37;5.13;;;4.38;;
30398;SDS011;17195;50.838;7.214;2022-10-18T04:13:04;6.13;;;4.35;;
30398;SDS011;17195;50.838;7.214;2022-10-18T04:15:30;6.60;;;4.72;;
30398;SDS011;17195;50.838;7.214;2022-10-18T04:17:56;4.95;;;3.30;;
30398;SDS011;17195;50.838;7.214;2022-10-18T04:20:22;4.32;;;2.90;;
30398;SDS011;17195;50.838;7.214;2022-10-18T04:22:49;5.35;;;2.92;;
30398;SDS011;17195;50.838;7.214;2022-10-18T04:25:15;4.18;;;2.58;;
30398;SDS011;17195;50.838;7.214;2022-10-18T04:27:41;4.50;;;2.60;;
30398;SDS011;17195;50.838;7.214;2022-10-18T04:30:07;4.18;;;2.42;;
30398;SDS011;17195;50.838;7.214;2022-10-18T04:32:33;4.40;;;2.53;;
30398;SDS011;17195;50.838;7.214;2022-10-18T04:34:59;4.35;;;2.50;;
30398;SDS011;17195;50.838;7.214;2022-10-18T04:37:29;2.65;;;2.20;;
30398;SDS011;17195;50.838;7.214;2022-10-18T04:39:55;3.30;;;2.63;;
30398;SDS011;17195;50.838;7.214;2022-10-18T04:42:21;3.88;;;2.80;;
30398;SDS011;17195;50.838;7.214;2022-10-18T04:44:47;3.63;;;2.67;;
30398;SDS011;17195;50.838;7.214;2022-10-18T04:47:13;3.47;;;2.42;;
30398;SDS011;17195;50.838;7.214;2022-10-18T04:49:40;4.55;;;2.83;;
30398;SDS011;17195;50.838;7.214;2022-10-18T04:52:05;5.10;;;2.45;;
30398;SDS011;17195;50.838;7.214;2022-10-18T04:54:31;3.63;;;2.35;;
30398;SDS011;17195;50.838;7.214;2022-10-18T04:56:57;3.05;;;2.58;;
30398;SDS011;17195;50.838;7.214;2022-10-18T04:59:22;4.00;;;2.42;;
30398;SDS011;17195;50.838;7.214;2022-10-18T05:01:48;2.97;;;2.40;;
30398;SDS011;17195;50.838;7.214;2022-10-18T05:04:13;3.22;;;2.58;;
30398;SDS011;17195;50.838;7.214;2022-10-18T05:06:39;3.38;;;2.40;;
30398;SDS011;17195;50.838;7.214;2022-10-18T05:09:04;3.05;;;2.50;;
30398;SDS011;17195;50.838;7.214;2022-10-18T05:11:30;4.22;;;2.55;;
30398;SDS011;17195;50.838;7.214;2022-10-18T05:13:55;4.90;;;2.20;;
30398;SDS011;17195;50.838;7.214;2022-10-18T05:16:21;5.10;;;2.03;;
30398;SDS011;17195;50.838;7.214;2022-10-18T05:18:47;5.72;;;2.03;;
30398;SDS011;17195;50.838;7.214;2022-10-18T05:21:12;3.50;;;1.80;;
30398;SDS011;17195;50.838;7.214;2022-10-18T05:23:38;2.92;;;2.25;;
30398;SDS011;17195;50.838;7.214;2022-10-18T05:26:04;4.30;;;1.90;;
30398;SDS011;17195;50.838;7.214;2022-10-18T05:28:30;4.00;;;2.13;;
30398;SDS011;17195;50.838;7.214;2022-10-18T05:31:14;2.50;;;2.00;;
30398;SDS011;17195;50.838;7.214;2022-10-18T05:33:40;2.58;;;1.95;;
30398;SDS011;17195;50.838;7.214;2022-10-18T05:36:06;2.22;;;2.03;;
30398;SDS011;17195;50.838;7.214;2022-10-18T05:38:32;2.70;;;2.20;;
30398;SDS011;17195;50.838;7.214;2022-10-18T05:40:57;4.95;;;2.40;;
30398;SDS011;17195;50.838;7.214;2022-10-18T05:43:26;5.70;;;3.40;;
30398;SDS011;17195;50.838;7.214;2022-10-18T05:45:52;3.53;;;2.92;;
30398;SDS011;17195;50.838;7.214;2022-10-18T05:48:18;4.88;;;3.20;;
30398;SDS011;17195;50.838;7.214;2022-10-18T05:50:44;4.28;;;3.03;;
30398;SDS011;17195;50.838;7.214;2022-10-18T05:53:09;3.45;;;2.58;;
30398;SDS011;17195;50.838;7.214;2022-10-18T05:55:35;3.38;;;2.60;;
30398;SDS011;17195;50.838;7.214;2022-10-18T05:58:01;3.92;;;2.67;;
30398;SDS011;17195;50.838;7.214;2022-10-18T06:00:27;12.65;;;3.45;;
30398;SDS011;17195;50.838;7.214;2022-10-18T06:02:53;3.92;;;3.40;;
30398;SDS011;17195;50.838;7.214;2022-10-18T06:05:19;5.75;;;3.38;;
30398;SDS011;17195;50.838;7.214;2022-10-18T06:07:44;3.78;;;3.38;;
30398;SDS011;17195;50.838;7.214;2022-10-18T06:10:10;3.83;;;2.60;;
30398;SDS011;17195;50.838;7.214;2022-10-18T06:12:35;4.50;;;3.33;;
30398;SDS011;17195;50.838;7.214;2022-10-18T06:15:01;11.32;;;5.75;;
30398;SDS011;17195;50.838;7.214;2022-10-18T06:17:27;6.80;;;4.72;;
30398;SDS011;17195;50.838;7.214;2022-10-18T06:19:52;4.40;;;3.30;;
30398;SDS011;17195;50.838;7.214;2022-10-18T06:22:18;5.97;;;3.70;;
30398;SDS011;17195;50.838;7.214;2022-10-18T06:24:43;7.13;;;3.70;;
30398;SDS011;17195;50.838;7.214;2022-10-18T06:27:09;4.57;;;3.47;;
30398;SDS011;17195;50.838;7.214;2022-10-18T06:29:35;6.10;;;3.67;;
30398;SDS011;17195;50.838;7.214;2022-10-18T06:32:01;5.22;;;3.92;;
30398;SDS011;17195;50.838;7.214;2022-10-18T06:34:27;5.75;;;4.45;;
30398;SDS011;17195;50.838;7.214;2022-10-18T06:36:53;4.90;;;4.20;;
30398;SDS011;17195;50.838;7.214;2022-10-18T06:39:19;6.13;;;4.35;;
30398;SDS011;17195;50.838;7.214;2022-10-18T06:41:44;7.60;;;5.00;;
30398;SDS011;17195;50.838;7.214;2022-10-18T06:44:10;5.63;;;4.00;;
30398;SDS011;17195;50.838;7.214;2022-10-18T06:46:41;5.15;;;4.30;;
30398;SDS011;17195;50.838;7.214;2022-10-18T06:49:08;5.38;;;3.90;;
30398;SDS011;17195;50.838;7.214;2022-10-18T06:51:34;6.30;;;4.25;;
30398;SDS011;17195;50.838;7.214;2022-10-18T06:54:00;8.02;;;5.00;;
30398;SDS011;17195;50.838;7.214;2022-10-18T06:56:25;6.65;;;4.20;;
30398;SDS011;17195;50.838;7.214;2022-10-18T06:58:51;7.78;;;5.05;;
30398;SDS011;17195;50.838;7.214;2022-10-18T07:01:17;7.45;;;4.80;;
30398;SDS011;17195;50.838;7.214;2022-10-18T07:03:43;6.35;;;3.83;;
30398;SDS011;17195;50.838;7.214;2022-10-18T07:06:11;10.95;;;3.55;;
30398;SDS011;17195;50.838;7.214;2022-10-18T07:08:37;6.75;;;3.65;;
30398;SDS011;17195;50.838;7.214;2022-10-18T07:11:04;6.25;;;3.83;;
30398;SDS011;17195;50.838;7.214;2022-10-18T07:13:30;9.45;;;4.00;;
30398;SDS011;17195;50.838;7.214;2022-10-18T07:16:03;7.05;;;3.92;;
30398;SDS011;17195;50.838;7.214;2022-10-18T07:18:33;5.88;;;3.75;;
30398;SDS011;17195;50.838;7.214;2022-10-18T07:21:01;7.32;;;5.00;;
30398;SDS011;17195;50.838;7.214;2022-10-18T07:23:40;7.28;;;4.72;;
30398;SDS011;17195;50.838;7.214;2022-10-18T07:26:11;7.32;;;4.70;;
30398;SDS011;17195;50.838;7.214;2022-10-18T07:28:42;6.28;;;4.80;;
30398;SDS011;17195;50.838;7.214;2022-10-18T07:31:09;6.35;;;4.30;;
30398;SDS011;17195;50.838;7.214;2022-10-18T07:33:35;9.15;;;5.75;;
30398;SDS011;17195;50.838;7.214;2022-10-18T07:36:07;8.45;;;5.10;;
30398;SDS011;17195;50.838;7.214;2022-10-18T07:38:34;7.35;;;5.45;;
30398;SDS011;17195;50.838;7.214;2022-10-18T07:41:00;9.15;;;5.70;;
30398;SDS011;17195;50.838;7.214;2022-10-18T07:43:27;12.50;;;8.73;;
30398;SDS011;17195;50.838;7.214;2022-10-18T07:45:53;13.52;;;7.50;;
30398;SDS011;17195;50.838;7.214;2022-10-18T07:48:19;6.97;;;5.93;;
30398;SDS011;17195;50.838;7.214;2022-10-18T07:50:45;7.10;;;5.80;;
30398;SDS011;17195;50.838;7.214;2022-10-18T07:53:11;8.82;;;5.80;;
30398;SDS011;17195;50.838;7.214;2022-10-18T07:55:37;7.88;;;4.78;;
30398;SDS011;17195;50.838;7.214;2022-10-18T07:58:02;6.40;;;4.95;;
30398;SDS011;17195;50.838;7.214;2022-10-18T08:00:28;6.03;;;4.95;;
30398;SDS011;17195;50.838;7.214;2022-10-18T08:02:57;6.90;;;4.88;;
30398;SDS011;17195;50.838;7.214;2022-10-18T08:05:26;5.40;;;4.75;;
30398;SDS011;17195;50.838;7.214;2022-10-18T08:07:53;7.53;;;5.15;;
30398;SDS011;17195;50.838;7.214;2022-10-18T08:10:19;7.13;;;5.95;;
30398;SDS011;17195;50.838;7.214;2022-10-18T08:12:45;10.02;;;6.00;;
30398;SDS011;17195;50.838;7.214;2022-10-18T08:15:11;9.40;;;5.60;;
30398;SDS011;17195;50.838;7.214;2022-10-18T08:17:37;8.35;;;5.78;;
30398;SDS011;17195;50.838;7.214;2022-10-18T08:20:13;6.60;;;4.97;;
30398;SDS011;17195;50.838;7.214;2022-10-18T08:22:41;7.78;;;6.15;;
30398;SDS011;17195;50.838;7.214;2022-10-18T08:25:07;6.50;;;5.63;;
30398;SDS011;17195;50.838;7.214;2022-10-18T08:27:40;7.53;;;5.93;;
30398;SDS011;17195;50.838;7.214;2022-10-18T08:30:11;10.38;;;5.40;;
30398;SDS011;17195;50.838;7.214;2022-10-18T08:32:38;6.40;;;4.78;;
30398;SDS011;17195;50.838;7.214;2022-10-18T08:35:06;9.32;;;5.60;;
30398;SDS011;17195;50.838;7.214;2022-10-18T08:37:32;8.00;;;5.50;;
30398;SDS011;17195;50.838;7.214;2022-10-18T08:39:58;5.60;;;4.72;;
30398;SDS011;17195;50.838;7.214;2022-10-18T08:45:16;6.10;;;4.47;;
30398;SDS011;17195;50.838;7.214;2022-10-18T08:47:43;4.60;;;4.10;;
30398;SDS011;17195;50.838;7.214;2022-10-18T08:50:19;5.25;;;4.28;;
30398;SDS011;17195;50.838;7.214;2022-10-18T08:55:35;6.25;;;4.53;;
30398;SDS011;17195;50.838;7.214;2022-10-18T08:58:22;7.05;;;5.50;;
30398;SDS011;17195;50.838;7.214;2022-10-18T09:03:50;10.05;;;6.40;;
30398;SDS011;17195;50.838;7.214;2022-10-18T09:06:56;7.35;;;5.05;;
30398;SDS011;17195;50.838;7.214;2022-10-18T09:09:45;10.13;;;5.22;;
30398;SDS011;17195;50.838;7.214;2022-10-18T09:12:53;11.07;;;6.30;;
30398;SDS011;17195;50.838;7.214;2022-10-18T09:15:26;12.48;;;5.93;;
30398;SDS011;17195;50.838;7.214;2022-10-18T09:21:14;12.52;;;6.93;;
30398;SDS011;17195;50.838;7.214;2022-10-18T09:23:21;9.48;;;6.05;;
30398;SDS011;17195;50.838;7.214;2022-10-18T09:26:09;9.30;;;6.07;;
30398;SDS011;17195;50.838;7.214;2022-10-18T09:34:07;9.90;;;7.93;;
30398;SDS011;17195;50.838;7.214;2022-10-18T09:36:43;13.20;;;7.57;;
30398;SDS011;17195;50.838;7.214;2022-10-18T09:39:14;9.65;;;7.22;;
30398;SDS011;17195;50.838;7.214;2022-10-18T09:41:47;9.73;;;7.38;;
30398;SDS011;17195;50.838;7.214;2022-10-18T09:44:26;11.25;;;8.35;;
30398;SDS011;17195;50.838;7.214;2022-10-18T09:47:09;15.10;;;9.10;;
30398;SDS011;17195;50.838;7.214;2022-10-18T09:49:42;15.48;;;8.50;;
30398;SDS011;17195;50.838;7.214;2022-10-18T09:52:21;11.90;;;8.82;;
30398;SDS011;17195;50.838;7.214;2022-10-18T09:54:53;11.40;;;8.00;;
30398;SDS011;17195;50.838;7.214;2022-10-18T10:00:02;11.15;;;8.55;;
30398;SDS011;17195;50.838;7.214;2022-10-18T10:02:28;11.10;;;8.95;;
30398;SDS011;17195;50.838;7.214;2022-10-18T10:04:54;14.32;;;9.02;;
30398;SDS011;17195;50.838;7.214;2022-10-18T10:07:24;17.83;;;10.38;;
30398;SDS011;17195;50.838;7.214;2022-10-18T10:09:56;19.02;;;12.60;;
30398;SDS011;17195;50.838;7.214;2022-10-18T10:14:53;14.82;;;10.45;;
30398;SDS011;17195;50.838;7.214;2022-10-18T10:17:25;16.45;;;10.60;;
30398;SDS011;17195;50.838;7.214;2022-10-18T10:20:00;12.88;;;9.88;;
30398;SDS011;17195;50.838;7.214;2022-10-18T10:25:02;14.40;;;11.27;;
30398;SDS011;17195;50.838;7.214;2022-10-18T10:27:32;15.07;;;10.25;;
30398;SDS011;17195;50.838;7.214;2022-10-18T10:30:23;16.73;;;10.80;;
30398;SDS011;17195;50.838;7.214;2022-10-18T10:32:49;16.38;;;11.73;;
30398;SDS011;17195;50.838;7.214;2022-10-18T10:37:54;14.70;;;11.30;;
30398;SDS011;17195;50.838;7.214;2022-10-18T10:40:21;18.42;;;12.85;;
30398;SDS011;17195;50.838;7.214;2022-10-18T10:45:26;18.75;;;13.10;;
30398;SDS011;17195;50.838;7.214;2022-10-18T10:48:00;13.77;;;11.07;;
30398;SDS011;17195;50.838;7.214;2022-10-18T10:50:28;16.90;;;11.02;;
30398;SDS011;17195;50.838;7.214;2022-10-18T10:52:54;12.45;;;9.05;;
30398;SDS011;17195;50.838;7.214;2022-10-18T10:55:24;12.43;;;9.23;;
30398;SDS011;17195;50.838;7.214;2022-10-18T10:57:53;8.85;;;6.60;;
30398;SDS011;17195;50.838;7.214;2022-10-18T11:03:16;10.80;;;7.50;;
30398;SDS011;17195;50.838;7.214;2022-10-18T11:05:46;7.22;;;6.10;;
30398;SDS011;17195;50.838;7.214;2022-10-18T11:08:14;10.73;;;6.90;;
30398;SDS011;17195;50.838;7.214;2022-10-18T11:10:49;7.07;;;5.60;;
30398;SDS011;17195;50.838;7.214;2022-10-18T11:13:43;7.68;;;5.47;;
30398;SDS011;17195;50.838;7.214;2022-10-18T11:16:20;9.02;;;5.57;;
30398;SDS011;17195;50.838;7.214;2022-10-18T11:19:02;7.78;;;6.20;;
30398;SDS011;17195;50.838;7.214;2022-10-18T11:21:40;6.18;;;5.57;;
30398;SDS011;17195;50.838;7.214;2022-10-18T11:24:08;8.40;;;5.82;;
30398;SDS011;17195;50.838;7.214;2022-10-18T11:26:52;7.82;;;5.10;;
30398;SDS011;17195;50.838;7.214;2022-10-18T11:29:54;6.50;;;5.35;;
30398;SDS011;17195;50.838;7.214;2022-10-18T11:35:48;9.40;;;6.93;;
30398;SDS011;17195;50.838;7.214;2022-10-18T11:38:28;8.70;;;6.82;;
30398;SDS011;17195;50.838;7.214;2022-10-18T11:41:28;8.75;;;7.47;;
30398;SDS011;17195;50.838;7.214;2022-10-18T11:55:08;11.38;;;9.20;;
30398;SDS011;17195;50.838;7.214;2022-10-18T12:00:46;13.85;;;10.50;;
30398;SDS011;17195;50.838;7.214;2022-10-18T12:06:15;15.77;;;10.25;;
30398;SDS011;17195;50.838;7.214;2022-10-18T12:09:08;14.18;;;10.23;;
30398;SDS011;17195;50.838;7.214;2022-10-18T12:11:40;13.60;;;10.50;;
30398;SDS011;17195;50.838;7.214;2022-10-18T12:16:47;15.15;;;10.10;;
30398;SDS011;17195;50.838;7.214;2022-10-18T12:19:19;11.15;;;8.98;;
30398;SDS011;17195;50.838;7.214;2022-10-18T12:21:47;12.02;;;9.30;;
30398;SDS011;17195;50.838;7.214;2022-10-18T12:24:14;10.18;;;8.68;;
30398;SDS011;17195;50.838;7.214;2022-10-18T12:26:43;10.52;;;8.25;;
30398;SDS011;17195;50.838;7.214;2022-10-18T12:32:08;11.35;;;8.45;;
30398;SDS011;17195;50.838;7.214;2022-10-18T12:34:47;10.68;;;8.05;;
30398;SDS011;17195;50.838;7.214;2022-10-18T12:37:43;9.32;;;7.72;;
30398;SDS011;17195;50.838;7.214;2022-10-18T12:40:16;10.60;;;9.07;;
30398;SDS011;17195;50.838;7.214;2022-10-18T12:42:49;10.43;;;8.65;;
30398;SDS011;17195;50.838;7.214;2022-10-18T12:45:24;11.93;;;8.95;;
30398;SDS011;17195;50.838;7.214;2022-10-18T12:48:02;12.95;;;8.90;;
30398;SDS011;17195;50.838;7.214;2022-10-18T12:50:32;12.93;;;9.93;;
30398;SDS011;17195;50.838;7.214;2022-10-18T12:53:19;15.23;;;11.65;;
30398;SDS011;17195;50.838;7.214;2022-10-18T12:55:53;17.67;;;13.30;;
30398;SDS011;17195;50.838;7.214;2022-10-18T12:58:39;19.77;;;12.50;;
30398;SDS011;17195;50.838;7.214;2022-10-18T13:01:06;21.58;;;15.15;;
30398;SDS011;17195;50.838;7.214;2022-10-18T13:03:38;18.42;;;14.40;;
30398;SDS011;17195;50.838;7.214;2022-10-18T13:06:13;20.52;;;14.82;;
30398;SDS011;17195;50.838;7.214;2022-10-18T13:08:40;18.95;;;14.98;;
30398;SDS011;17195;50.838;7.214;2022-10-18T13:18:51;18.65;;;14.20;;
30398;SDS011;17195;50.838;7.214;2022-10-18T13:21:46;22.20;;;13.57;;
30398;SDS011;17195;50.838;7.214;2022-10-18T13:24:44;17.65;;;13.38;;
30398;SDS011;17195;50.838;7.214;2022-10-18T13:27:37;20.08;;;12.77;;
30398;SDS011;17195;50.838;7.214;2022-10-18T13:36:24;17.75;;;13.00;;
30398;SDS011;17195;50.838;7.214;2022-10-18T13:41:18;22.27;;;15.98;;
30398;SDS011;17195;50.838;7.214;2022-10-18T13:46:20;18.88;;;13.48;;
30398;SDS011;17195;50.838;7.214;2022-10-18T13:48:51;16.80;;;13.43;;
30398;SDS011;17195;50.838;7.214;2022-10-18T13:54:35;21.23;;;15.05;;
30398;SDS011;17195;50.838;7.214;2022-10-18T14:03:01;27.58;;;18.40;;
30398;SDS011;17195;50.838;7.214;2022-10-18T14:05:48;26.83;;;20.27;;
30398;SDS011;17195;50.838;7.214;2022-10-18T14:08:16;31.93;;;20.97;;
30398;SDS011;17195;50.838;7.214;2022-10-18T14:11:06;30.70;;;22.30;;
30398;SDS011;17195;50.838;7.214;2022-10-18T14:13:46;38.38;;;25.65;;
30398;SDS011;17195;50.838;7.214;2022-10-18T14:19:10;43.05;;;30.63;;
30398;SDS011;17195;50.838;7.214;2022-10-18T14:22:12;55.35;;;35.63;;
30398;SDS011;17195;50.838;7.214;2022-10-18T14:24:41;52.20;;;35.40;;
30398;SDS011;17195;50.838;7.214;2022-10-18T14:27:17;55.30;;;35.13;;
30398;SDS011;17195;50.838;7.214;2022-10-18T14:29:45;58.00;;;36.13;;
30398;SDS011;17195;50.838;7.214;2022-10-18T14:32:45;55.95;;;34.50;;
30398;SDS011;17195;50.838;7.214;2022-10-18T14:35:20;63.10;;;36.80;;
30398;SDS011;17195;50.838;7.214;2022-10-18T14:37:49;64.72;;;37.50;;
30398;SDS011;17195;50.838;7.214;2022-10-18T14:40:55;57.58;;;35.58;;
30398;SDS011;17195;50.838;7.214;2022-10-18T14:43:12;61.22;;;36.08;;
30398;SDS011;17195;50.838;7.214;2022-10-18T14:45:40;57.20;;;34.00;;
30398;SDS011;17195;50.838;7.214;2022-10-18T14:48:16;56.30;;;34.28;;
30398;SDS011;17195;50.838;7.214;2022-10-18T14:50:57;54.50;;;32.72;;
30398;SDS011;17195;50.838;7.214;2022-10-18T14:53:41;55.40;;;32.47;;
30398;SDS011;17195;50.838;7.214;2022-10-18T14:56:10;48.50;;;30.15;;
30398;SDS011;17195;50.838;7.214;2022-10-18T14:58:48;45.75;;;28.27;;
30398;SDS011;17195;50.838;7.214;2022-10-18T15:01:18;47.72;;;29.00;;
30398;SDS011;17195;50.838;7.214;2022-10-18T15:03:45;43.47;;;27.95;;
30398;SDS011;17195;50.838;7.214;2022-10-18T15:06:16;40.47;;;26.33;;
30398;SDS011;17195;50.838;7.214;2022-10-18T15:08:43;44.63;;;27.98;;
30398;SDS011;17195;50.838;7.214;2022-10-18T15:11:12;42.42;;;26.98;;
30398;SDS011;17195;50.838;7.214;2022-10-18T15:13:49;38.17;;;25.90;;
30398;SDS011;17195;50.838;7.214;2022-10-18T15:16:21;40.17;;;25.80;;
30398;SDS011;17195;50.838;7.214;2022-10-18T15:19:06;41.33;;;25.73;;
30398;SDS011;17195;50.838;7.214;2022-10-18T15:22:09;36.45;;;23.35;;
30398;SDS011;17195;50.838;7.214;2022-10-18T15:27:12;38.08;;;23.73;;
30398;SDS011;17195;50.838;7.214;2022-10-18T15:29:46;41.10;;;22.60;;
30398;SDS011;17195;50.838;7.214;2022-10-18T15:32:19;33.05;;;21.60;;
30398;SDS011;17195;50.838;7.214;2022-10-18T15:34:49;34.53;;;20.92;;
30398;SDS011;17195;50.838;7.214;2022-10-18T15:42:44;30.75;;;18.98;;
30398;SDS011;17195;50.838;7.214;2022-10-18T15:53:21;25.27;;;16.88;;
30398;SDS011;17195;50.838;7.214;2022-10-18T15:55:48;28.05;;;16.08;;
30398;SDS011;17195;50.838;7.214;2022-10-18T16:00:42;21.17;;;13.00;;
30398;SDS011;17195;50.838;7.214;2022-10-18T16:03:09;18.75;;;11.68;;
30398;SDS011;17195;50.838;7.214;2022-10-18T16:05:35;23.38;;;13.65;;
30398;SDS011;17195;50.838;7.214;2022-10-18T16:08:01;24.85;;;13.23;;
30398;SDS011;17195;50.838;7.214;2022-10-18T16:10:27;18.83;;;12.35;;
30398;SDS011;17195;50.838;7.214;2022-10-18T16:12:53;22.85;;;12.30;;
30398;SDS011;17195;50.838;7.214;2022-10-18T16:15:20;23.60;;;12.32;;
30398;SDS011;17195;50.838;7.214;2022-10-18T16:17:46;24.08;;;12.65;;
30398;SDS011;17195;50.838;7.214;2022-10-18T16:20:22;23.58;;;14.00;;
30398;SDS011;17195;50.838;7.214;2022-10-18T16:22:49;23.40;;;13.05;;
30398;SDS011;17195;50.838;7.214;2022-10-18T16:25:14;23.60;;;13.43;;
30398;SDS011;17195;50.838;7.214;2022-10-18T16:27:40;21.38;;;11.63;;
30398;SDS011;17195;50.838;7.214;2022-10-18T16:30:13;20.45;;;11.60;;
30398;SDS011;17195;50.838;7.214;2022-10-18T16:32:42;18.88;;;11.27;;
30398;SDS011;17195;50.838;7.214;2022-10-18T16:35:08;19.45;;;11.88;;
30398;SDS011;17195;50.838;7.214;2022-10-18T16:37:36;20.67;;;13.15;;
30398;SDS011;17195;50.838;7.214;2022-10-18T16:40:17;20.13;;;12.10;;
30398;SDS011;17195;50.838;7.214;2022-10-18T16:42:47;18.75;;;11.70;;
30398;SDS011;17195;50.838;7.214;2022-10-18T16:45:12;17.25;;;11.52;;
30398;SDS011;17195;50.838;7.214;2022-10-18T16:47:38;17.27;;;11.82;;
30398;SDS011;17195;50.838;7.214;2022-10-18T16:50:03;22.35;;;11.90;;
30398;SDS011;17195;50.838;7.214;2022-10-18T16:52:32;21.45;;;11.93;;
30398;SDS011;17195;50.838;7.214;2022-10-18T16:54:58;22.90;;;12.82;;
30398;SDS011;17195;50.838;7.214;2022-10-18T16:57:23;24.58;;;12.10;;
30398;SDS011;17195;50.838;7.214;2022-10-18T16:59:49;21.60;;;11.68;;
30398;SDS011;17195;50.838;7.214;2022-10-18T17:02:14;23.88;;;11.27;;
30398;SDS011;17195;50.838;7.214;2022-10-18T17:04:40;23.13;;;12.32;;
30398;SDS011;17195;50.838;7.214;2022-10-18T17:07:06;19.65;;;11.70;;
30398;SDS011;17195;50.838;7.214;2022-10-18T17:09:31;17.10;;;11.73;;
30398;SDS011;17195;50.838;7.214;2022-10-18T17:11:58;20.20;;;11.48;;
30398;SDS011;17195;50.838;7.214;2022-10-18T17:14:24;20.38;;;11.15;;